createdAt,value
2019-02-15T00:00:19.160Z,986.42
2019-02-15T00:01:19.150Z,986.35
2019-02-15T00:02:19.185Z,986.35
2019-02-15T00:03:19.136Z,986.37
2019-02-15T00:04:19.008Z,986.36
2019-02-15T00:05:19.098Z,986.36
2019-02-15T00:06:19.112Z,986.37
2019-02-15T00:07:19.125Z,986.41
2019-02-15T00:08:19.058Z,986.39
2019-02-15T00:09:19.063Z,986.43
2019-02-15T00:10:19.059Z,986.45
2019-02-15T00:11:19.070Z,986.46
2019-02-15T00:12:19.033Z,986.48
2019-02-15T00:13:19.048Z,986.44
2019-02-15T00:14:19.011Z,986.46
2019-02-15T00:15:19.003Z,986.48
2019-02-15T00:16:18.991Z,986.44
2019-02-15T00:17:18.985Z,986.47
2019-02-15T00:18:18.903Z,986.46
2019-02-15T00:19:18.951Z,986.41
2019-02-15T00:20:18.955Z,986.37
2019-02-15T00:21:18.944Z,986.39
2019-02-15T00:22:18.941Z,986.40
2019-02-15T00:23:18.963Z,986.42
2019-02-15T00:24:18.897Z,986.33
2019-02-15T00:25:18.875Z,986.37
2019-02-15T00:26:18.896Z,986.40
2019-02-15T00:27:18.839Z,986.38
2019-02-15T00:28:18.834Z,986.38
2019-02-15T00:29:18.864Z,986.43
2019-02-15T00:30:18.816Z,986.47
2019-02-15T00:31:18.801Z,986.44
2019-02-15T00:32:18.786Z,986.46
2019-02-15T00:33:18.785Z,986.51
2019-02-15T00:34:18.835Z,986.40
2019-02-15T00:35:18.780Z,986.48
2019-02-15T00:36:18.765Z,986.37
2019-02-15T00:37:18.753Z,986.37
2019-02-15T00:38:18.743Z,986.35
2019-02-15T00:39:18.724Z,986.29
2019-02-15T00:40:18.762Z,986.32
2019-02-15T00:41:18.711Z,986.33
2019-02-15T00:42:18.706Z,986.38
2019-02-15T00:43:22.323Z,986.35
2019-02-15T00:44:18.680Z,986.39
2019-02-15T00:45:18.668Z,986.41
2019-02-15T00:46:18.672Z,986.40
2019-02-15T00:47:18.636Z,986.37
2019-02-15T00:48:18.619Z,986.43
2019-02-15T00:49:18.515Z,986.35
2019-02-15T00:50:18.644Z,986.40
2019-02-15T00:51:18.574Z,986.34
2019-02-15T00:52:18.572Z,986.38
2019-02-15T00:53:18.563Z,986.43
2019-02-15T00:54:18.551Z,986.46
2019-02-15T00:55:18.538Z,986.47
2019-02-15T00:56:18.569Z,986.47
2019-02-15T00:57:18.524Z,986.47
2019-02-15T00:58:18.528Z,986.48
2019-02-15T00:59:18.402Z,986.46
2019-02-15T01:00:18.494Z,986.45
2019-02-15T01:01:18.516Z,986.52
2019-02-15T01:02:18.469Z,986.50
2019-02-15T01:03:19.367Z,986.49
2019-02-15T01:04:18.346Z,986.51
2019-02-15T01:05:19.371Z,986.51
2019-02-15T01:06:18.430Z,986.52
2019-02-15T01:07:18.348Z,986.50
2019-02-15T01:08:18.411Z,986.56
2019-02-15T01:09:18.298Z,986.53
2019-02-15T01:10:18.386Z,986.48
2019-02-15T01:11:18.304Z,986.43
2019-02-15T01:12:18.411Z,986.45
2019-02-15T01:13:18.260Z,986.52
2019-02-15T01:14:18.334Z,986.52
2019-02-15T01:15:18.342Z,986.53
2019-02-15T01:16:18.319Z,986.51
2019-02-15T01:17:18.296Z,986.55
2019-02-15T01:18:18.314Z,986.54
2019-02-15T01:19:18.302Z,986.54
2019-02-15T01:20:18.162Z,986.47
2019-02-15T01:21:18.261Z,986.42
2019-02-15T01:22:18.251Z,986.46
2019-02-15T01:23:18.297Z,986.38
2019-02-15T01:24:18.135Z,986.49
2019-02-15T01:25:18.212Z,986.40
2019-02-15T01:26:18.207Z,986.40
2019-02-15T01:27:18.197Z,986.39
2019-02-15T01:28:18.182Z,986.35
2019-02-15T01:29:18.209Z,986.31
2019-02-15T01:30:18.160Z,986.33
2019-02-15T01:31:18.123Z,986.37
2019-02-15T01:32:18.142Z,986.30
2019-02-15T01:33:18.131Z,986.32
2019-02-15T01:34:18.115Z,986.35
2019-02-15T01:35:18.185Z,986.33
2019-02-15T01:36:18.075Z,986.35
2019-02-15T01:37:17.983Z,986.27
2019-02-15T01:38:18.073Z,986.30
2019-02-15T01:39:18.078Z,986.27
2019-02-15T01:40:18.034Z,986.25
2019-02-15T01:41:18.051Z,986.26
2019-02-15T01:42:18.010Z,986.29
2019-02-15T01:43:18.002Z,986.22
2019-02-15T01:44:18.130Z,986.23
2019-02-15T01:45:18.003Z,986.24
2019-02-15T01:46:17.966Z,986.27
2019-02-15T01:47:17.879Z,986.31
2019-02-15T01:48:17.943Z,986.27
2019-02-15T01:49:17.845Z,986.22
2019-02-15T01:50:17.956Z,986.23
2019-02-15T01:51:17.905Z,986.23
2019-02-15T01:52:17.887Z,986.24
2019-02-15T01:53:17.884Z,986.21
2019-02-15T01:54:17.866Z,986.22
2019-02-15T01:55:17.872Z,986.22
2019-02-15T01:56:17.892Z,986.27
2019-02-15T01:57:17.843Z,986.19
2019-02-15T01:58:17.834Z,986.22
2019-02-15T01:59:17.826Z,986.22
2019-02-15T02:00:17.814Z,986.17
2019-02-15T02:01:17.794Z,986.16
2019-02-15T02:02:17.824Z,986.19
2019-02-15T02:03:17.779Z,986.14
2019-02-15T02:04:17.771Z,986.13
2019-02-15T02:05:17.761Z,986.12
2019-02-15T02:06:17.741Z,986.08
2019-02-15T02:07:17.728Z,986.09
2019-02-15T02:08:17.748Z,986.04
2019-02-15T02:09:17.711Z,986.01
2019-02-15T02:10:17.692Z,986.05
2019-02-15T02:11:17.685Z,986.01
2019-02-15T02:12:17.700Z,986.04
2019-02-15T02:13:17.666Z,986.06
2019-02-15T02:14:17.673Z,986.07
2019-02-15T02:15:17.644Z,986.09
2019-02-15T02:16:17.575Z,986.02
2019-02-15T02:17:17.728Z,986.00
2019-02-15T02:18:17.623Z,986.02
2019-02-15T02:19:17.600Z,986.01
2019-02-15T02:20:17.585Z,985.98
2019-02-15T02:21:17.502Z,985.96
2019-02-15T02:22:17.588Z,986.04
2019-02-15T02:23:17.582Z,986.01
2019-02-15T02:24:17.541Z,986.04
2019-02-15T02:25:17.542Z,985.96
2019-02-15T02:26:17.522Z,986.02
2019-02-15T02:27:17.503Z,985.93
2019-02-15T02:28:17.530Z,985.97
2019-02-15T02:29:17.480Z,985.91
2019-02-15T02:30:17.471Z,985.94
2019-02-15T02:31:17.460Z,985.87
2019-02-15T02:32:17.504Z,985.83
2019-02-15T02:33:17.500Z,985.84
2019-02-15T02:34:17.435Z,985.86
2019-02-15T02:35:17.425Z,985.86
2019-02-15T02:36:17.412Z,985.91
2019-02-15T02:37:17.324Z,985.91
2019-02-15T02:38:17.365Z,985.92
2019-02-15T02:39:17.379Z,985.95
2019-02-15T02:40:17.366Z,985.91
2019-02-15T02:41:17.355Z,985.89
2019-02-15T02:42:17.342Z,986.03
2019-02-15T02:43:17.335Z,986.01
2019-02-15T02:44:17.349Z,986.05
2019-02-15T02:45:17.315Z,986.01
2019-02-15T02:46:17.314Z,986.05
2019-02-15T02:47:17.297Z,986.09
2019-02-15T02:48:17.288Z,986.06
2019-02-15T02:49:17.317Z,986.01
2019-02-15T02:50:17.252Z,986.08
2019-02-15T02:51:17.245Z,986.02
2019-02-15T02:52:17.236Z,986.04
2019-02-15T02:53:17.136Z,986.07
2019-02-15T02:54:17.231Z,986.02
2019-02-15T02:55:17.158Z,986.02
2019-02-15T02:56:17.195Z,985.97
2019-02-15T02:57:17.101Z,985.97
2019-02-15T02:58:17.173Z,986.02
2019-02-15T02:59:17.191Z,985.94
2019-02-15T03:00:17.152Z,986.00
2019-02-15T03:01:17.167Z,985.96
2019-02-15T03:02:17.136Z,985.97
2019-02-15T03:03:17.131Z,985.95
2019-02-15T03:04:17.126Z,985.89
2019-02-15T03:05:17.151Z,985.93
2019-02-15T03:06:17.108Z,985.92
2019-02-15T03:07:17.087Z,985.90
2019-02-15T03:08:17.083Z,985.93
2019-02-15T03:09:16.979Z,985.92
2019-02-15T03:10:17.097Z,985.89
2019-02-15T03:11:17.042Z,985.90
2019-02-15T03:12:17.040Z,985.89
2019-02-15T03:13:17.030Z,985.87
2019-02-15T03:14:17.022Z,985.90
2019-02-15T03:15:17.117Z,985.86
2019-02-15T03:16:17.048Z,985.84
2019-02-15T03:17:16.996Z,985.90
2019-02-15T03:18:16.974Z,985.91
2019-02-15T03:19:16.956Z,985.88
2019-02-15T03:20:16.964Z,985.92
2019-02-15T03:21:19.258Z,985.91
2019-02-15T03:22:16.976Z,985.90
2019-02-15T03:23:16.913Z,985.91
2019-02-15T03:24:16.908Z,985.93
2019-02-15T03:25:16.800Z,985.92
2019-02-15T03:26:16.785Z,985.97
2019-02-15T03:27:16.871Z,986.00
2019-02-15T03:28:16.882Z,985.98
2019-02-15T03:29:16.817Z,985.96
2019-02-15T03:30:16.741Z,985.97
2019-02-15T03:31:16.829Z,985.97
2019-02-15T03:32:16.842Z,985.98
2019-02-15T03:33:16.810Z,985.96
2019-02-15T03:34:16.841Z,985.97
2019-02-15T03:35:16.784Z,986.00
2019-02-15T03:36:16.773Z,985.99
2019-02-15T03:37:16.772Z,985.98
2019-02-15T03:38:16.751Z,986.03
2019-02-15T03:39:16.745Z,985.98
2019-02-15T03:40:16.778Z,985.97
2019-02-15T03:41:16.746Z,985.93
2019-02-15T03:42:16.703Z,985.91
2019-02-15T03:43:16.692Z,985.97
2019-02-15T03:44:22.199Z,985.92
2019-02-15T03:45:17.709Z,985.94
2019-02-15T03:46:16.666Z,985.89
2019-02-15T03:47:16.656Z,985.93
2019-02-15T03:48:16.641Z,985.93
2019-02-15T03:49:16.630Z,985.93
2019-02-15T03:50:16.617Z,985.93
2019-02-15T03:51:16.655Z,985.93
2019-02-15T03:52:16.598Z,985.90
2019-02-15T03:53:16.476Z,985.87
2019-02-15T03:54:16.486Z,985.88
2019-02-15T03:55:16.581Z,985.89
2019-02-15T03:56:16.563Z,985.91
2019-02-15T03:57:16.596Z,985.87
2019-02-15T03:58:16.430Z,985.87
2019-02-15T03:59:16.517Z,985.82
2019-02-15T04:00:16.507Z,985.95
2019-02-15T04:01:16.495Z,985.89
2019-02-15T04:02:16.376Z,985.94
2019-02-15T04:03:16.515Z,985.90
2019-02-15T04:04:16.468Z,985.89
2019-02-15T04:05:16.356Z,985.87
2019-02-15T04:06:16.447Z,985.88
2019-02-15T04:07:16.441Z,985.92
2019-02-15T04:08:16.418Z,985.87
2019-02-15T04:09:16.468Z,985.94
2019-02-15T04:10:16.299Z,985.93
2019-02-15T04:11:16.389Z,985.91
2019-02-15T04:12:16.380Z,985.88
2019-02-15T04:13:16.254Z,985.86
2019-02-15T04:14:16.249Z,985.94
2019-02-15T04:15:16.369Z,985.90
2019-02-15T04:16:16.328Z,985.89
2019-02-15T04:17:16.313Z,985.89
2019-02-15T04:18:16.298Z,985.89
2019-02-15T04:19:16.291Z,985.92
2019-02-15T04:20:16.278Z,985.94
2019-02-15T04:21:16.315Z,985.86
2019-02-15T04:22:16.310Z,985.82
2019-02-15T04:23:16.256Z,985.88
2019-02-15T04:24:16.262Z,985.78
2019-02-15T04:25:16.220Z,985.83
2019-02-15T04:26:16.126Z,985.82
2019-02-15T04:27:16.193Z,985.84
2019-02-15T04:28:16.193Z,985.84
2019-02-15T04:29:16.185Z,985.82
2019-02-15T04:30:16.219Z,985.83
2019-02-15T04:31:16.201Z,985.79
2019-02-15T04:32:16.145Z,985.81
2019-02-15T04:33:16.131Z,985.86
2019-02-15T04:34:16.137Z,985.83
2019-02-15T04:35:16.123Z,985.84
2019-02-15T04:36:16.126Z,985.79
2019-02-15T04:37:16.099Z,985.76
2019-02-15T04:38:16.073Z,985.81
2019-02-15T04:39:16.076Z,985.78
2019-02-15T04:40:16.051Z,985.76
2019-02-15T04:41:16.047Z,985.75
2019-02-15T04:42:15.999Z,985.75
2019-02-15T04:43:16.033Z,985.70
2019-02-15T04:44:16.015Z,985.75
2019-02-15T04:45:16.004Z,985.72
2019-02-15T04:46:15.983Z,985.73
2019-02-15T04:47:15.975Z,985.67
2019-02-15T04:48:15.999Z,985.63
2019-02-15T04:49:15.951Z,985.68
2019-02-15T04:50:15.940Z,985.65
2019-02-15T04:51:15.920Z,985.72
2019-02-15T04:52:15.914Z,985.64
2019-02-15T04:53:15.912Z,985.68
2019-02-15T04:54:15.940Z,985.68
2019-02-15T04:55:15.814Z,985.63
2019-02-15T04:56:15.799Z,985.66
2019-02-15T04:57:15.777Z,985.60
2019-02-15T04:58:15.857Z,985.62
2019-02-15T04:59:15.749Z,985.61
2019-02-15T05:00:15.863Z,985.66
2019-02-15T05:01:15.750Z,985.59
2019-02-15T05:02:15.844Z,985.68
2019-02-15T05:03:15.720Z,985.62
2019-02-15T05:04:15.785Z,985.68
2019-02-15T05:05:15.698Z,985.64
2019-02-15T05:06:15.764Z,985.66
2019-02-15T05:07:15.703Z,985.64
2019-02-15T05:08:15.740Z,985.70
2019-02-15T05:09:15.679Z,985.66
2019-02-15T05:10:15.727Z,985.67
2019-02-15T05:11:15.717Z,985.64
2019-02-15T05:12:15.721Z,985.61
2019-02-15T05:13:15.707Z,985.60
2019-02-15T05:14:15.695Z,985.63
2019-02-15T05:15:15.683Z,985.67
2019-02-15T05:16:15.732Z,985.64
2019-02-15T05:17:15.713Z,985.61
2019-02-15T05:18:15.646Z,985.58
2019-02-15T05:19:15.653Z,985.59
2019-02-15T05:20:15.627Z,985.57
2019-02-15T05:21:15.614Z,985.52
2019-02-15T05:22:15.608Z,985.51
2019-02-15T05:23:15.631Z,985.50
2019-02-15T05:24:15.589Z,985.56
2019-02-15T05:25:15.565Z,985.59
2019-02-15T05:26:15.471Z,985.54
2019-02-15T05:27:15.554Z,985.46
2019-02-15T05:28:15.536Z,985.52
2019-02-15T05:29:15.580Z,985.49
2019-02-15T05:30:15.529Z,985.46
2019-02-15T05:31:15.508Z,985.53
2019-02-15T05:32:15.499Z,985.57
2019-02-15T05:33:15.492Z,985.52
2019-02-15T05:34:15.471Z,985.52
2019-02-15T05:35:15.507Z,985.48
2019-02-15T05:36:15.455Z,985.46
2019-02-15T05:37:15.452Z,985.38
2019-02-15T05:38:15.427Z,985.36
2019-02-15T05:39:15.412Z,985.39
2019-02-15T05:40:15.319Z,985.37
2019-02-15T05:41:15.313Z,985.39
2019-02-15T05:42:15.384Z,985.41
2019-02-15T05:43:15.359Z,985.45
2019-02-15T05:44:16.354Z,985.47
2019-02-15T05:45:15.344Z,985.45
2019-02-15T05:46:15.332Z,985.48
2019-02-15T05:47:15.332Z,985.41
2019-02-15T05:48:15.301Z,985.37
2019-02-15T05:49:15.299Z,985.34
2019-02-15T05:50:15.238Z,985.41
2019-02-15T05:51:15.199Z,985.42
2019-02-15T05:52:15.279Z,985.41
2019-02-15T05:53:15.258Z,985.37
2019-02-15T05:54:15.151Z,985.40
2019-02-15T05:55:15.155Z,985.35
2019-02-15T05:56:15.283Z,985.32
2019-02-15T05:57:15.216Z,985.44
2019-02-15T05:58:15.206Z,985.37
2019-02-15T05:59:15.192Z,985.36
2019-02-15T06:00:15.179Z,985.35
2019-02-15T06:01:15.172Z,985.39
2019-02-15T06:02:15.182Z,985.40
2019-02-15T06:03:15.132Z,985.38
2019-02-15T06:04:15.057Z,985.46
2019-02-15T06:05:15.025Z,985.44
2019-02-15T06:06:15.103Z,985.41
2019-02-15T06:07:15.093Z,985.43
2019-02-15T06:08:15.117Z,985.49
2019-02-15T06:09:14.993Z,985.50
2019-02-15T06:10:14.981Z,985.57
2019-02-15T06:11:15.053Z,985.58
2019-02-15T06:12:15.053Z,985.57
2019-02-15T06:13:15.030Z,985.56
2019-02-15T06:14:14.940Z,985.53
2019-02-15T06:15:15.693Z,985.55
2019-02-15T06:16:14.938Z,985.57
2019-02-15T06:17:14.911Z,985.56
2019-02-15T06:18:14.893Z,985.53
2019-02-15T06:19:14.880Z,985.58
2019-02-15T06:20:14.972Z,985.55
2019-02-15T06:21:14.889Z,985.59
2019-02-15T06:22:14.862Z,985.57
2019-02-15T06:23:14.832Z,985.62
2019-02-15T06:24:14.923Z,985.61
2019-02-15T06:25:14.818Z,985.60
2019-02-15T06:26:14.841Z,985.67
2019-02-15T06:27:14.798Z,985.61
2019-02-15T06:28:14.878Z,985.63
2019-02-15T06:29:14.870Z,985.64
2019-02-15T06:30:14.761Z,985.65
2019-02-15T06:31:14.850Z,985.67
2019-02-15T06:32:14.767Z,985.67
2019-02-15T06:33:14.726Z,985.65
2019-02-15T06:34:14.723Z,985.66
2019-02-15T06:35:15.405Z,985.65
2019-02-15T06:36:14.782Z,985.61
2019-02-15T06:37:14.789Z,985.65
2019-02-15T06:38:14.773Z,985.64
2019-02-15T06:39:14.754Z,985.64
2019-02-15T06:40:14.762Z,985.64
2019-02-15T06:41:14.733Z,985.67
2019-02-15T06:42:14.729Z,985.58
2019-02-15T06:43:14.615Z,985.63
2019-02-15T06:44:14.596Z,985.61
2019-02-15T06:45:24.051Z,985.63
2019-02-15T06:46:16.387Z,985.62
2019-02-15T06:47:14.657Z,985.66
2019-02-15T06:48:14.706Z,985.75
2019-02-15T06:49:14.535Z,985.70
2019-02-15T06:50:14.534Z,985.67
2019-02-15T06:51:14.529Z,985.67
2019-02-15T06:52:14.523Z,985.65
2019-02-15T06:53:14.502Z,985.64
2019-02-15T06:54:14.519Z,985.60
2019-02-15T06:55:14.486Z,985.59
2019-02-15T06:56:14.480Z,985.66
2019-02-15T06:57:14.463Z,985.66
2019-02-15T06:58:14.458Z,985.65
2019-02-15T06:59:14.438Z,985.69
2019-02-15T07:00:14.476Z,985.70
2019-02-15T07:01:14.521Z,985.75
2019-02-15T07:02:14.405Z,985.76
2019-02-15T07:03:14.394Z,985.70
2019-02-15T07:04:14.380Z,985.70
2019-02-15T07:05:14.373Z,985.71
2019-02-15T07:06:14.413Z,985.73
2019-02-15T07:07:14.354Z,985.73
2019-02-15T07:08:14.354Z,985.72
2019-02-15T07:09:15.219Z,985.77
2019-02-15T07:10:14.324Z,985.81
2019-02-15T07:11:14.303Z,985.83
2019-02-15T07:12:14.346Z,985.82
2019-02-15T07:13:14.292Z,985.84
2019-02-15T07:14:14.375Z,985.89
2019-02-15T07:15:14.353Z,985.82
2019-02-15T07:16:14.358Z,985.83
2019-02-15T07:17:14.359Z,985.81
2019-02-15T07:18:14.370Z,985.85
2019-02-15T07:19:14.334Z,985.83
2019-02-15T07:20:14.215Z,985.88
2019-02-15T07:21:14.295Z,985.90
2019-02-15T07:22:14.290Z,985.91
2019-02-15T07:23:14.274Z,985.86
2019-02-15T07:24:14.349Z,985.87
2019-02-15T07:25:14.267Z,985.92
2019-02-15T07:26:14.146Z,985.91
2019-02-15T07:27:14.226Z,985.90
2019-02-15T07:28:14.221Z,985.84
2019-02-15T07:29:14.204Z,985.86
2019-02-15T07:30:15.614Z,985.86
2019-02-15T07:31:14.080Z,985.85
2019-02-15T07:32:14.080Z,985.89
2019-02-15T07:33:14.161Z,985.87
2019-02-15T07:34:14.150Z,985.85
2019-02-15T07:35:14.139Z,985.83
2019-02-15T07:36:14.086Z,985.90
2019-02-15T07:37:14.033Z,985.90
2019-02-15T07:38:14.013Z,985.90
2019-02-15T07:39:14.071Z,985.86
2019-02-15T07:40:14.086Z,985.84
2019-02-15T07:41:13.971Z,985.79
2019-02-15T07:42:14.022Z,985.82
2019-02-15T07:43:13.950Z,985.81
2019-02-15T07:44:13.943Z,985.77
2019-02-15T07:45:13.922Z,985.82
2019-02-15T07:46:13.928Z,985.85
2019-02-15T07:47:13.905Z,985.75
2019-02-15T07:48:14.042Z,985.82
2019-02-15T07:49:14.022Z,985.73
2019-02-15T07:50:13.873Z,985.86
2019-02-15T07:51:14.032Z,985.81
2019-02-15T07:52:13.955Z,985.82
2019-02-15T07:53:13.954Z,985.82
2019-02-15T07:54:13.850Z,985.84
2019-02-15T07:55:13.820Z,985.90
2019-02-15T07:56:13.898Z,985.91
2019-02-15T07:57:13.956Z,985.88
2019-02-15T07:58:13.886Z,985.85
2019-02-15T07:59:13.877Z,985.89
2019-02-15T08:00:13.884Z,985.87
2019-02-15T08:01:13.855Z,985.88
2019-02-15T08:02:13.849Z,985.90
2019-02-15T08:03:13.877Z,985.90
2019-02-15T08:04:13.824Z,985.87
2019-02-15T08:05:13.810Z,985.93
2019-02-15T08:06:13.811Z,985.96
2019-02-15T08:07:13.855Z,985.93
2019-02-15T08:08:13.759Z,985.95
2019-02-15T08:09:13.761Z,985.96
2019-02-15T08:10:13.760Z,985.93
2019-02-15T08:11:13.754Z,985.90
2019-02-15T08:12:13.730Z,985.92
2019-02-15T08:13:13.647Z,985.84
2019-02-15T08:14:15.110Z,985.86
2019-02-15T08:15:13.587Z,985.85
2019-02-15T08:16:13.596Z,985.77
2019-02-15T08:17:13.581Z,985.78
2019-02-15T08:18:13.600Z,985.75
2019-02-15T08:19:13.556Z,985.79
2019-02-15T08:20:13.555Z,985.72
2019-02-15T08:21:13.640Z,985.81
2019-02-15T08:22:13.626Z,985.76
2019-02-15T08:23:13.547Z,985.79
2019-02-15T08:24:13.507Z,985.77
2019-02-15T08:25:13.497Z,985.72
2019-02-15T08:26:13.600Z,985.76
2019-02-15T08:27:13.560Z,985.74
2019-02-15T08:28:13.553Z,985.74
2019-02-15T08:29:13.470Z,985.72
2019-02-15T08:30:13.447Z,985.74
2019-02-15T08:31:13.433Z,985.76
2019-02-15T08:32:13.508Z,985.74
2019-02-15T08:33:13.408Z,985.73
2019-02-15T08:34:13.424Z,985.75
2019-02-15T08:35:13.371Z,985.79
2019-02-15T08:36:13.463Z,985.78
2019-02-15T08:37:13.916Z,985.77
2019-02-15T08:38:13.454Z,985.74
2019-02-15T08:39:13.468Z,985.78
2019-02-15T08:40:13.417Z,985.76
2019-02-15T08:41:13.411Z,985.78
2019-02-15T08:42:13.409Z,985.81
2019-02-15T08:43:13.414Z,985.82
2019-02-15T08:44:13.423Z,985.85
2019-02-15T08:45:13.378Z,985.79
2019-02-15T08:46:13.362Z,985.81
2019-02-15T08:47:13.345Z,985.76
2019-02-15T08:48:13.341Z,985.83
2019-02-15T08:49:13.318Z,985.82
2019-02-15T08:50:13.353Z,985.78
2019-02-15T08:51:13.307Z,985.75
2019-02-15T08:52:13.290Z,985.80
2019-02-15T08:53:13.279Z,985.78
2019-02-15T08:54:13.300Z,985.78
2019-02-15T08:55:13.259Z,985.79
2019-02-15T08:56:13.279Z,985.78
2019-02-15T08:57:13.235Z,985.73
2019-02-15T08:58:13.237Z,985.77
2019-02-15T08:59:13.232Z,985.79
2019-02-15T09:00:13.202Z,985.81
2019-02-15T09:01:13.189Z,985.74
2019-02-15T09:02:13.209Z,985.76
2019-02-15T09:03:13.166Z,985.75
2019-02-15T09:04:13.148Z,985.77
2019-02-15T09:05:13.143Z,985.75
2019-02-15T09:06:13.178Z,985.76
2019-02-15T09:07:13.121Z,985.75
2019-02-15T09:08:13.109Z,985.64
2019-02-15T09:09:13.093Z,985.65
2019-02-15T09:10:13.094Z,985.67
2019-02-15T09:11:13.070Z,985.63
2019-02-15T09:12:13.103Z,985.66
2019-02-15T09:13:13.060Z,985.68
2019-02-15T09:14:13.047Z,985.68
2019-02-15T09:15:13.045Z,985.69
2019-02-15T09:16:13.046Z,985.70
2019-02-15T09:17:13.038Z,985.69
2019-02-15T09:18:13.046Z,985.72
2019-02-15T09:19:12.991Z,985.67
2019-02-15T09:20:12.974Z,985.64
2019-02-15T09:21:12.974Z,985.66
2019-02-15T09:22:12.962Z,985.62
2019-02-15T09:23:12.958Z,985.61
2019-02-15T09:24:13.003Z,985.63
2019-02-15T09:25:12.931Z,985.61
2019-02-15T09:26:18.228Z,985.54
2019-02-15T09:27:13.903Z,985.57
2019-02-15T09:28:12.884Z,985.61
2019-02-15T09:29:12.877Z,985.59
2019-02-15T09:30:12.941Z,985.52
2019-02-15T09:31:12.853Z,985.55
2019-02-15T09:32:12.830Z,985.63
2019-02-15T09:33:12.829Z,985.61
2019-02-15T09:34:12.820Z,985.64
2019-02-15T09:35:12.837Z,985.66
2019-02-15T09:36:12.846Z,985.64
2019-02-15T09:37:12.788Z,985.65
2019-02-15T09:38:12.793Z,985.62
2019-02-15T09:39:12.777Z,985.59
2019-02-15T09:40:12.769Z,985.60
2019-02-15T09:41:12.739Z,985.53
2019-02-15T09:42:12.757Z,985.54
2019-02-15T09:43:12.769Z,985.53
2019-02-15T09:44:12.726Z,985.48
2019-02-15T09:45:12.715Z,985.55
2019-02-15T09:46:19.444Z,985.50
2019-02-15T09:47:13.679Z,985.50
2019-02-15T09:48:12.687Z,985.58
2019-02-15T09:49:12.654Z,985.55
2019-02-15T09:50:12.638Z,985.55
2019-02-15T09:51:12.624Z,985.51
2019-02-15T09:52:12.645Z,985.54
2019-02-15T09:53:12.642Z,985.57
2019-02-15T09:54:12.592Z,985.57
2019-02-15T09:55:12.602Z,985.56
2019-02-15T09:56:12.574Z,985.59
2019-02-15T09:57:12.570Z,985.59
2019-02-15T09:58:12.546Z,985.57
2019-02-15T09:59:12.593Z,985.55
2019-02-15T10:00:12.533Z,985.47
2019-02-15T10:01:12.530Z,985.47
2019-02-15T10:02:12.516Z,985.53
2019-02-15T10:03:12.508Z,985.51
2019-02-15T10:04:12.479Z,985.49
2019-02-15T10:05:12.516Z,985.53
2019-02-15T10:06:12.472Z,985.54
2019-02-15T10:07:12.466Z,985.53
2019-02-15T10:08:12.453Z,985.50
2019-02-15T10:09:12.441Z,985.49
2019-02-15T10:10:12.444Z,985.53
2019-02-15T10:11:12.442Z,985.53
2019-02-15T10:12:12.403Z,985.55
2019-02-15T10:13:12.399Z,985.49
2019-02-15T10:14:12.380Z,985.58
2019-02-15T10:15:12.373Z,985.56
2019-02-15T10:16:12.364Z,985.51
2019-02-15T10:17:12.400Z,985.45
2019-02-15T10:18:12.347Z,985.48
2019-02-15T10:19:12.340Z,985.50
2019-02-15T10:20:12.329Z,985.51
2019-02-15T10:21:12.319Z,985.51
2019-02-15T10:22:12.297Z,985.46
2019-02-15T10:23:12.323Z,985.43
2019-02-15T10:24:12.280Z,985.45
2019-02-15T10:25:12.263Z,985.38
2019-02-15T10:26:12.259Z,985.41
2019-02-15T10:27:12.253Z,985.38
2019-02-15T10:28:12.232Z,985.35
2019-02-15T10:29:12.272Z,985.29
2019-02-15T10:30:12.221Z,985.30
2019-02-15T10:31:12.213Z,985.34
2019-02-15T10:32:12.184Z,985.27
2019-02-15T10:33:12.196Z,985.27
2019-02-15T10:34:12.169Z,985.24
2019-02-15T10:35:12.205Z,985.20
2019-02-15T10:36:12.136Z,985.24
2019-02-15T10:37:12.132Z,985.24
2019-02-15T10:38:12.121Z,985.19
2019-02-15T10:39:12.116Z,985.17
2019-02-15T10:40:12.115Z,985.20
2019-02-15T10:41:12.108Z,985.14
2019-02-15T10:42:12.093Z,985.09
2019-02-15T10:43:12.052Z,985.04
2019-02-15T10:44:12.054Z,985.03
2019-02-15T10:45:12.044Z,985.11
2019-02-15T10:46:12.072Z,985.14
2019-02-15T10:47:14.220Z,985.08
2019-02-15T10:48:13.008Z,985.04
2019-02-15T10:49:12.007Z,985.02
2019-02-15T10:50:12.000Z,985.06
2019-02-15T10:51:11.993Z,985.04
2019-02-15T10:52:12.044Z,984.99
2019-02-15T10:53:11.967Z,984.99
2019-02-15T10:54:11.944Z,985.01
2019-02-15T10:55:11.938Z,985.02
2019-02-15T10:56:11.920Z,984.98
2019-02-15T10:57:11.914Z,985.01
2019-02-15T10:58:11.961Z,984.98
2019-02-15T10:59:11.882Z,985.01
2019-02-15T11:00:11.874Z,985.01
2019-02-15T11:01:11.867Z,984.89
2019-02-15T11:02:11.873Z,984.99
2019-02-15T11:03:11.856Z,984.92
2019-02-15T11:04:11.906Z,984.87
2019-02-15T11:05:11.843Z,984.92
2019-02-15T11:06:11.818Z,984.94
2019-02-15T11:07:11.804Z,984.94
2019-02-15T11:08:11.797Z,984.85
2019-02-15T11:09:11.797Z,984.85
2019-02-15T11:10:11.811Z,984.90
2019-02-15T11:11:11.752Z,984.78
2019-02-15T11:12:11.765Z,984.83
2019-02-15T11:13:11.744Z,984.82
2019-02-15T11:14:11.785Z,984.86
2019-02-15T11:15:11.723Z,984.81
2019-02-15T11:16:11.760Z,984.90
2019-02-15T11:17:11.695Z,984.81
2019-02-15T11:18:11.682Z,984.83
2019-02-15T11:19:11.694Z,984.83
2019-02-15T11:20:11.675Z,984.76
2019-02-15T11:21:11.661Z,984.77
2019-02-15T11:22:11.682Z,984.77
2019-02-15T11:23:11.659Z,984.69
2019-02-15T11:24:11.635Z,984.68
2019-02-15T11:25:11.630Z,984.77
2019-02-15T11:26:11.604Z,984.77
2019-02-15T11:27:11.598Z,984.81
2019-02-15T11:28:11.635Z,984.79
2019-02-15T11:29:11.603Z,984.76
2019-02-15T11:30:11.555Z,984.77
2019-02-15T11:31:11.560Z,984.74
2019-02-15T11:32:11.533Z,984.67
2019-02-15T11:33:11.548Z,984.68
2019-02-15T11:34:11.566Z,984.73
2019-02-15T11:35:11.527Z,984.69
2019-02-15T11:36:11.504Z,984.68
2019-02-15T11:37:11.479Z,984.69
2019-02-15T11:38:11.476Z,984.75
2019-02-15T11:39:11.504Z,984.68
2019-02-15T11:40:11.467Z,984.71
2019-02-15T11:41:11.556Z,984.67
2019-02-15T11:42:11.439Z,984.64
2019-02-15T11:43:11.422Z,984.72
2019-02-15T11:44:11.416Z,984.66
2019-02-15T11:45:11.479Z,984.65
2019-02-15T11:46:11.410Z,984.64
2019-02-15T11:47:11.387Z,984.60
2019-02-15T11:48:11.379Z,984.64
2019-02-15T11:49:11.377Z,984.61
2019-02-15T11:50:11.404Z,984.59
2019-02-15T11:51:11.374Z,984.66
2019-02-15T11:52:11.333Z,984.65
2019-02-15T11:53:11.326Z,984.58
2019-02-15T11:54:11.323Z,984.60
2019-02-15T11:55:11.387Z,984.61
2019-02-15T11:56:11.288Z,984.60
2019-02-15T11:57:11.293Z,984.58
2019-02-15T11:58:11.282Z,984.55
2019-02-15T11:59:11.279Z,984.53
2019-02-15T12:00:14.212Z,984.61
2019-02-15T12:01:11.295Z,984.53
2019-02-15T12:02:11.233Z,984.51
2019-02-15T12:03:11.209Z,984.49
2019-02-15T12:04:11.217Z,984.54
2019-02-15T12:05:11.209Z,984.55
2019-02-15T12:06:11.190Z,984.54
2019-02-15T12:07:11.385Z,984.47
2019-02-15T12:08:11.185Z,984.55
2019-02-15T12:09:11.169Z,984.58
2019-02-15T12:10:11.150Z,984.57
2019-02-15T12:11:11.933Z,984.53
2019-02-15T12:12:11.183Z,984.49
2019-02-15T12:13:11.163Z,984.47
2019-02-15T12:14:11.102Z,984.46
2019-02-15T12:15:11.094Z,984.46
2019-02-15T12:16:11.095Z,984.51
2019-02-15T12:17:11.070Z,984.48
2019-02-15T12:18:11.064Z,984.48
2019-02-15T12:19:11.098Z,984.49
2019-02-15T12:20:11.066Z,984.47
2019-02-15T12:21:11.032Z,984.51
2019-02-15T12:22:11.013Z,984.46
2019-02-15T12:23:11.009Z,984.47
2019-02-15T12:24:10.994Z,984.45
2019-02-15T12:25:11.032Z,984.42
2019-02-15T12:26:10.976Z,984.42
2019-02-15T12:27:10.975Z,984.43
2019-02-15T12:28:10.946Z,984.35